sensor_id;sensor_type;location;lat;lon;timestamp;pressure;altitude;pressure_sealevel;temperature;humidity
34237;BME280;20501;45.956;13.632;2022-10-31T00:02:19;101221.72;;;15.65;71.36
34237;BME280;20501;45.956;13.632;2022-10-31T00:04:45;101217.78;;;15.59;70.66
34237;BME280;20501;45.956;13.632;2022-10-31T00:07:10;101220.72;;;15.29;71.31
34237;BME280;20501;45.956;13.632;2022-10-31T00:09:35;101226.16;;;15.66;70.12
34237;BME280;20501;45.956;13.632;2022-10-31T00:12:01;101225.22;;;15.21;71.65
34237;BME280;20501;45.956;13.632;2022-10-31T00:14:26;101228.19;;;15.63;72.21
34237;BME280;20501;45.956;13.632;2022-10-31T00:16:52;101218.91;;;15.56;73.29
34237;BME280;20501;45.956;13.632;2022-10-31T00:19:17;101218.94;;;15.83;72.89
34237;BME280;20501;45.956;13.632;2022-10-31T00:21:42;101225.31;;;15.47;70.87
34237;BME280;20501;45.956;13.632;2022-10-31T00:24:08;101218.94;;;16.01;72.05
34237;BME280;20501;45.956;13.632;2022-10-31T00:26:33;101228.81;;;16.28;72.02
34237;BME280;20501;45.956;13.632;2022-10-31T00:29:00;101222.69;;;16.00;69.23
34237;BME280;20501;45.956;13.632;2022-10-31T00:31:25;101231.06;;;16.06;70.03
34237;BME280;20501;45.956;13.632;2022-10-31T00:33:50;101228.25;;;16.16;69.84
34237;BME280;20501;45.956;13.632;2022-10-31T00:36:18;101225.66;;;15.88;69.44
34237;BME280;20501;45.956;13.632;2022-10-31T00:38:44;101221.81;;;16.25;71.00
34237;BME280;20501;45.956;13.632;2022-10-31T00:41:11;101228.75;;;16.54;68.90
34237;BME280;20501;45.956;13.632;2022-10-31T00:43:37;101220.69;;;16.10;71.44
34237;BME280;20501;45.956;13.632;2022-10-31T00:46:02;101226.75;;;15.96;71.79
34237;BME280;20501;45.956;13.632;2022-10-31T00:48:28;101226.09;;;16.02;69.03
34237;BME280;20501;45.956;13.632;2022-10-31T00:50:54;101219.69;;;16.11;71.96
34237;BME280;20501;45.956;13.632;2022-10-31T00:53:20;101222.44;;;15.30;71.52
34237;BME280;20501;45.956;13.632;2022-10-31T00:55:45;101222.59;;;15.29;71.26
34237;BME280;20501;45.956;13.632;2022-10-31T00:58:10;101217.59;;;15.60;70.09
34237;BME280;20501;45.956;13.632;2022-10-31T01:00:36;101213.63;;;15.91;70.76
34237;BME280;20501;45.956;13.632;2022-10-31T01:03:02;101218.31;;;15.62;69.12
34237;BME280;20501;45.956;13.632;2022-10-31T01:05:27;101214.34;;;16.01;70.91
34237;BME280;20501;45.956;13.632;2022-10-31T01:07:53;101217.44;;;16.06;69.28
34237;BME280;20501;45.956;13.632;2022-10-31T01:10:18;101215.38;;;15.82;68.18
34237;BME280;20501;45.956;13.632;2022-10-31T01:12:45;101205.84;;;16.04;67.01
34237;BME280;20501;45.956;13.632;2022-10-31T01:15:13;101208.22;;;15.81;67.70
34237;BME280;20501;45.956;13.632;2022-10-31T01:17:39;101213.91;;;15.70;69.88
34237;BME280;20501;45.956;13.632;2022-10-31T01:20:06;101210.13;;;15.62;68.81
34237;BME280;20501;45.956;13.632;2022-10-31T01:22:31;101206.06;;;15.85;68.76
34237;BME280;20501;45.956;13.632;2022-10-31T01:24:57;101201.66;;;16.53;70.38
34237;BME280;20501;45.956;13.632;2022-10-31T01:27:22;101205.94;;;16.21;68.54
34237;BME280;20501;45.956;13.632;2022-10-31T01:29:48;101205.72;;;16.49;70.01
34237;BME280;20501;45.956;13.632;2022-10-31T01:32:13;101202.56;;;16.27;68.04
34237;BME280;20501;45.956;13.632;2022-10-31T01:34:39;101205.94;;;16.21;71.86
34237;BME280;20501;45.956;13.632;2022-10-31T01:37:04;101205.47;;;15.19;70.42
34237;BME280;20501;45.956;13.632;2022-10-31T01:39:29;101199.44;;;15.43;73.27
34237;BME280;20501;45.956;13.632;2022-10-31T01:41:55;101201.28;;;15.24;71.26
34237;BME280;20501;45.956;13.632;2022-10-31T01:47:05;101203.69;;;15.09;71.09
34237;BME280;20501;45.956;13.632;2022-10-31T01:49:43;101196.50;;;14.72;72.81
34237;BME280;20501;45.956;13.632;2022-10-31T01:54:41;101200.31;;;14.51;73.34
34237;BME280;20501;45.956;13.632;2022-10-31T01:57:10;101194.72;;;14.53;73.26
34237;BME280;20501;45.956;13.632;2022-10-31T01:59:40;101197.28;;;14.54;72.84
34237;BME280;20501;45.956;13.632;2022-10-31T02:02:08;101196.66;;;14.70;72.30
34237;BME280;20501;45.956;13.632;2022-10-31T02:04:34;101199.69;;;14.67;73.06
34237;BME280;20501;45.956;13.632;2022-10-31T02:07:27;101197.38;;;14.91;74.87
34237;BME280;20501;45.956;13.632;2022-10-31T02:09:56;101204.41;;;15.29;71.48
34237;BME280;20501;45.956;13.632;2022-10-31T02:12:22;101194.16;;;14.77;71.79
34237;BME280;20501;45.956;13.632;2022-10-31T02:14:48;101190.53;;;14.59;72.50
34237;BME280;20501;45.956;13.632;2022-10-31T02:17:13;101197.84;;;15.40;74.14
34237;BME280;20501;45.956;13.632;2022-10-31T02:20:03;101193.50;;;14.93;71.18
34237;BME280;20501;45.956;13.632;2022-10-31T02:22:42;101190.03;;;14.45;73.10
34237;BME280;20501;45.956;13.632;2022-10-31T02:28:08;101188.38;;;14.34;72.85
34237;BME280;20501;45.956;13.632;2022-10-31T02:33:43;101195.38;;;14.93;71.71
34237;BME280;20501;45.956;13.632;2022-10-31T02:36:29;101192.31;;;14.96;71.04
34237;BME280;20501;45.956;13.632;2022-10-31T02:44:22;101192.28;;;15.24;70.40
34237;BME280;20501;45.956;13.632;2022-10-31T02:46:53;101200.03;;;15.81;70.90
34237;BME280;20501;45.956;13.632;2022-10-31T02:51:54;101200.44;;;15.42;68.74
34237;BME280;20501;45.956;13.632;2022-10-31T02:54:24;101193.41;;;15.39;70.94
34237;BME280;20501;45.956;13.632;2022-10-31T02:56:54;101193.13;;;14.88;72.65
34237;BME280;20501;45.956;13.632;2022-10-31T02:59:23;101187.31;;;15.19;72.48
34237;BME280;20501;45.956;13.632;2022-10-31T03:02:01;101191.31;;;14.79;73.90
34237;BME280;20501;45.956;13.632;2022-10-31T03:12:29;101185.78;;;14.89;70.50
34237;BME280;20501;45.956;13.632;2022-10-31T03:17:33;101185.31;;;14.75;70.31
34237;BME280;20501;45.956;13.632;2022-10-31T03:20:03;101192.03;;;15.17;70.32
34237;BME280;20501;45.956;13.632;2022-10-31T03:22:31;101182.41;;;15.67;69.28
34237;BME280;20501;45.956;13.632;2022-10-31T03:24:57;101190.78;;;15.47;67.84
34237;BME280;20501;45.956;13.632;2022-10-31T03:27:25;101188.44;;;15.35;72.29
34237;BME280;20501;45.956;13.632;2022-10-31T03:29:56;101194.53;;;15.10;69.39
34237;BME280;20501;45.956;13.632;2022-10-31T03:32:31;101191.19;;;15.16;72.27
34237;BME280;20501;45.956;13.632;2022-10-31T03:35:00;101197.06;;;14.76;70.79
34237;BME280;20501;45.956;13.632;2022-10-31T03:37:28;101194.13;;;14.87;71.67
34237;BME280;20501;45.956;13.632;2022-10-31T03:39:55;101197.09;;;14.94;72.92
34237;BME280;20501;45.956;13.632;2022-10-31T03:42:24;101194.47;;;14.46;71.82
34237;BME280;20501;45.956;13.632;2022-10-31T03:45:06;101202.28;;;14.87;73.70
34237;BME280;20501;45.956;13.632;2022-10-31T03:47:35;101196.50;;;14.90;74.01
34237;BME280;20501;45.956;13.632;2022-10-31T03:50:03;101199.38;;;15.61;72.28
34237;BME280;20501;45.956;13.632;2022-10-31T03:55:15;101197.16;;;14.18;72.12
34237;BME280;20501;45.956;13.632;2022-10-31T04:00:14;101204.88;;;15.25;72.82
34237;BME280;20501;45.956;13.632;2022-10-31T04:03:09;101207.50;;;15.35;72.21
34237;BME280;20501;45.956;13.632;2022-10-31T04:05:33;101216.13;;;15.48;71.92
34237;BME280;20501;45.956;13.632;2022-10-31T04:08:01;101203.78;;;14.72;70.12
34237;BME280;20501;45.956;13.632;2022-10-31T04:10:29;101204.97;;;14.59;72.61
34237;BME280;20501;45.956;13.632;2022-10-31T04:13:01;101211.53;;;14.94;72.47
34237;BME280;20501;45.956;13.632;2022-10-31T04:15:29;101212.94;;;14.98;69.20
34237;BME280;20501;45.956;13.632;2022-10-31T04:17:58;101215.94;;;15.68;71.05
34237;BME280;20501;45.956;13.632;2022-10-31T04:20:37;101220.44;;;15.32;71.92
34237;BME280;20501;45.956;13.632;2022-10-31T04:23:03;101211.09;;;15.53;72.03
34237;BME280;20501;45.956;13.632;2022-10-31T04:25:29;101215.38;;;15.38;68.20
34237;BME280;20501;45.956;13.632;2022-10-31T04:27:54;101219.63;;;16.03;70.33
34237;BME280;20501;45.956;13.632;2022-10-31T04:30:20;101219.94;;;15.55;70.98
34237;BME280;20501;45.956;13.632;2022-10-31T04:32:46;101213.66;;;15.00;72.71
34237;BME280;20501;45.956;13.632;2022-10-31T04:35:11;101213.94;;;15.33;71.88
34237;BME280;20501;45.956;13.632;2022-10-31T04:37:37;101212.56;;;15.11;69.95
34237;BME280;20501;45.956;13.632;2022-10-31T04:40:03;101212.63;;;15.20;69.02
34237;BME280;20501;45.956;13.632;2022-10-31T04:42:29;101214.13;;;14.58;70.52
34237;BME280;20501;45.956;13.632;2022-10-31T04:44:55;101207.22;;;14.64;72.63
34237;BME280;20501;45.956;13.632;2022-10-31T04:47:20;101216.56;;;14.61;71.96
34237;BME280;20501;45.956;13.632;2022-10-31T04:49:46;101210.69;;;14.94;72.59
34237;BME280;20501;45.956;13.632;2022-10-31T04:52:11;101204.38;;;14.37;71.19
34237;BME280;20501;45.956;13.632;2022-10-31T04:54:36;101208.88;;;15.02;72.89
34237;BME280;20501;45.956;13.632;2022-10-31T04:57:02;101214.75;;;15.08;69.96
34237;BME280;20501;45.956;13.632;2022-10-31T04:59:27;101203.91;;;14.98;69.28
34237;BME280;20501;45.956;13.632;2022-10-31T05:01:53;101208.91;;;15.83;70.37
34237;BME280;20501;45.956;13.632;2022-10-31T05:04:18;101211.09;;;15.98;69.08
34237;BME280;20501;45.956;13.632;2022-10-31T05:06:44;101211.41;;;15.94;66.55
34237;BME280;20501;45.956;13.632;2022-10-31T05:09:09;101220.16;;;16.33;69.34
34237;BME280;20501;45.956;13.632;2022-10-31T05:11:34;101215.03;;;15.59;69.53
34237;BME280;20501;45.956;13.632;2022-10-31T05:14:00;101209.88;;;15.92;70.34
34237;BME280;20501;45.956;13.632;2022-10-31T05:16:25;101214.56;;;15.63;69.63
34237;BME280;20501;45.956;13.632;2022-10-31T05:18:51;101208.16;;;16.17;69.69
34237;BME280;20501;45.956;13.632;2022-10-31T05:21:16;101210.16;;;16.50;68.10
34237;BME280;20501;45.956;13.632;2022-10-31T05:23:41;101215.59;;;16.42;68.71
34237;BME280;20501;45.956;13.632;2022-10-31T05:26:07;101209.13;;;15.63;70.78
34237;BME280;20501;45.956;13.632;2022-10-31T05:28:32;101217.53;;;15.52;67.45
34237;BME280;20501;45.956;13.632;2022-10-31T05:30:58;101210.13;;;14.90;71.56
34237;BME280;20501;45.956;13.632;2022-10-31T05:33:23;101209.78;;;14.75;68.58
34237;BME280;20501;45.956;13.632;2022-10-31T05:35:48;101212.66;;;14.74;68.50
34237;BME280;20501;45.956;13.632;2022-10-31T05:38:14;101208.66;;;15.50;71.39
34237;BME280;20501;45.956;13.632;2022-10-31T05:40:39;101212.63;;;15.38;66.91
34237;BME280;20501;45.956;13.632;2022-10-31T05:43:05;101212.34;;;16.03;69.55
34237;BME280;20501;45.956;13.632;2022-10-31T05:45:30;101203.78;;;15.80;65.69
34237;BME280;20501;45.956;13.632;2022-10-31T05:47:57;101217.66;;;15.87;69.71
34237;BME280;20501;45.956;13.632;2022-10-31T05:50:25;101214.75;;;16.15;65.97
34237;BME280;20501;45.956;13.632;2022-10-31T05:52:59;101211.91;;;15.72;67.61
34237;BME280;20501;45.956;13.632;2022-10-31T05:55:25;101216.00;;;15.31;66.32
34237;BME280;20501;45.956;13.632;2022-10-31T05:57:52;101222.97;;;15.16;66.52
34237;BME280;20501;45.956;13.632;2022-10-31T06:00:18;101216.97;;;15.85;65.88
34237;BME280;20501;45.956;13.632;2022-10-31T06:02:44;101217.09;;;15.83;67.21
34237;BME280;20501;45.956;13.632;2022-10-31T06:05:10;101225.44;;;16.34;68.79
34237;BME280;20501;45.956;13.632;2022-10-31T06:07:35;101226.00;;;15.49;65.63
34237;BME280;20501;45.956;13.632;2022-10-31T06:10:04;101219.53;;;16.13;68.79
34237;BME280;20501;45.956;13.632;2022-10-31T06:12:30;101225.78;;;15.42;67.43
34237;BME280;20501;45.956;13.632;2022-10-31T06:14:55;101233.41;;;15.57;69.52
34237;BME280;20501;45.956;13.632;2022-10-31T06:17:21;101229.47;;;15.96;69.44
34237;BME280;20501;45.956;13.632;2022-10-31T06:19:46;101235.19;;;16.11;66.31
34237;BME280;20501;45.956;13.632;2022-10-31T06:22:11;101234.94;;;15.96;67.34
34237;BME280;20501;45.956;13.632;2022-10-31T06:24:37;101229.09;;;15.72;68.00
34237;BME280;20501;45.956;13.632;2022-10-31T06:27:03;101235.19;;;15.30;65.75
34237;BME280;20501;45.956;13.632;2022-10-31T06:29:29;101237.13;;;15.74;68.33
34237;BME280;20501;45.956;13.632;2022-10-31T06:31:54;101237.59;;;14.69;67.54
34237;BME280;20501;45.956;13.632;2022-10-31T06:34:20;101240.78;;;14.54;68.21
34237;BME280;20501;45.956;13.632;2022-10-31T06:36:46;101238.53;;;15.24;68.93
34237;BME280;20501;45.956;13.632;2022-10-31T06:39:11;101240.38;;;15.23;69.83
34237;BME280;20501;45.956;13.632;2022-10-31T06:41:37;101232.31;;;14.67;68.15
34237;BME280;20501;45.956;13.632;2022-10-31T06:44:05;101246.06;;;14.94;71.46
34237;BME280;20501;45.956;13.632;2022-10-31T06:46:30;101244.75;;;14.32;69.09
34237;BME280;20501;45.956;13.632;2022-10-31T06:48:56;101248.44;;;14.79;67.72
34237;BME280;20501;45.956;13.632;2022-10-31T06:51:21;101252.53;;;15.29;70.52
34237;BME280;20501;45.956;13.632;2022-10-31T06:53:47;101248.63;;;14.67;67.79
34237;BME280;20501;45.956;13.632;2022-10-31T06:56:12;101250.75;;;14.64;67.93
34237;BME280;20501;45.956;13.632;2022-10-31T06:58:37;101258.94;;;14.92;71.39
34237;BME280;20501;45.956;13.632;2022-10-31T07:01:03;101259.41;;;14.87;71.07
34237;BME280;20501;45.956;13.632;2022-10-31T07:03:28;101258.50;;;14.68;68.17
34237;BME280;20501;45.956;13.632;2022-10-31T07:05:57;101265.38;;;14.25;69.28
34237;BME280;20501;45.956;13.632;2022-10-31T07:08:23;101262.84;;;14.51;70.71
34237;BME280;20501;45.956;13.632;2022-10-31T07:10:53;101259.53;;;14.85;71.14
34237;BME280;20501;45.956;13.632;2022-10-31T07:13:19;101268.88;;;14.83;69.45
34237;BME280;20501;45.956;13.632;2022-10-31T07:15:50;101268.94;;;14.73;67.49
34237;BME280;20501;45.956;13.632;2022-10-31T07:18:15;101266.38;;;14.62;67.88
34237;BME280;20501;45.956;13.632;2022-10-31T07:20:41;101271.66;;;14.73;67.91
34237;BME280;20501;45.956;13.632;2022-10-31T07:23:08;101270.19;;;14.79;67.91
34237;BME280;20501;45.956;13.632;2022-10-31T07:25:34;101270.38;;;14.67;68.65
34237;BME280;20501;45.956;13.632;2022-10-31T07:28:00;101266.56;;;14.88;68.80
34237;BME280;20501;45.956;13.632;2022-10-31T07:30:25;101275.78;;;15.41;66.82
34237;BME280;20501;45.956;13.632;2022-10-31T07:32:51;101271.53;;;15.75;65.40
34237;BME280;20501;45.956;13.632;2022-10-31T07:35:22;101274.00;;;15.50;65.36
34237;BME280;20501;45.956;13.632;2022-10-31T07:37:48;101269.34;;;15.97;64.19
34237;BME280;20501;45.956;13.632;2022-10-31T07:40:13;101270.88;;;15.81;64.42
34237;BME280;20501;45.956;13.632;2022-10-31T07:42:41;101277.09;;;16.36;64.68
34237;BME280;20501;45.956;13.632;2022-10-31T07:45:09;101275.47;;;16.86;64.98
34237;BME280;20501;45.956;13.632;2022-10-31T07:47:46;101273.28;;;16.98;63.73
34237;BME280;20501;45.956;13.632;2022-10-31T07:50:27;101274.88;;;17.00;63.19
34237;BME280;20501;45.956;13.632;2022-10-31T07:53:06;101274.88;;;17.00;61.86
34237;BME280;20501;45.956;13.632;2022-10-31T07:55:32;101276.81;;;17.25;63.23
34237;BME280;20501;45.956;13.632;2022-10-31T07:58:03;101277.19;;;17.38;63.99
34237;BME280;20501;45.956;13.632;2022-10-31T08:00:30;101274.72;;;17.18;63.02
34237;BME280;20501;45.956;13.632;2022-10-31T08:02:59;101279.38;;;17.35;64.22
34237;BME280;20501;45.956;13.632;2022-10-31T08:05:25;101269.94;;;17.04;61.65
34237;BME280;20501;45.956;13.632;2022-10-31T08:07:51;101267.97;;;16.88;61.96
34237;BME280;20501;45.956;13.632;2022-10-31T08:10:16;101267.91;;;16.80;62.96
34237;BME280;20501;45.956;13.632;2022-10-31T08:12:42;101266.53;;;17.10;62.19
34237;BME280;20501;45.956;13.632;2022-10-31T08:15:08;101268.09;;;16.86;61.76
34237;BME280;20501;45.956;13.632;2022-10-31T08:17:37;101266.06;;;16.80;63.09
34237;BME280;20501;45.956;13.632;2022-10-31T08:20:04;101268.59;;;16.39;63.41
34237;BME280;20501;45.956;13.632;2022-10-31T08:22:29;101277.44;;;16.67;63.62
34237;BME280;20501;45.956;13.632;2022-10-31T08:24:55;101263.09;;;16.65;62.58
34237;BME280;20501;45.956;13.632;2022-10-31T08:27:20;101270.13;;;16.76;62.23
34237;BME280;20501;45.956;13.632;2022-10-31T08:29:46;101267.59;;;16.83;62.41
34237;BME280;20501;45.956;13.632;2022-10-31T08:32:11;101265.38;;;16.86;62.75
34237;BME280;20501;45.956;13.632;2022-10-31T08:34:36;101261.44;;;16.81;62.53
34237;BME280;20501;45.956;13.632;2022-10-31T08:37:02;101259.19;;;16.76;63.44
34237;BME280;20501;45.956;13.632;2022-10-31T08:39:27;101265.56;;;16.93;62.29
34237;BME280;20501;45.956;13.632;2022-10-31T08:41:53;101259.34;;;17.09;62.02
34237;BME280;20501;45.956;13.632;2022-10-31T08:44:18;101256.81;;;17.16;62.58
34237;BME280;20501;45.956;13.632;2022-10-31T08:46:44;101262.47;;;17.23;62.43
34237;BME280;20501;45.956;13.632;2022-10-31T08:49:09;101261.94;;;17.19;61.55
34237;BME280;20501;45.956;13.632;2022-10-31T08:51:34;101258.19;;;17.20;62.46
34237;BME280;20501;45.956;13.632;2022-10-31T08:54:00;101267.22;;;17.29;62.39
34237;BME280;20501;45.956;13.632;2022-10-31T08:56:25;101267.78;;;17.41;62.73
34237;BME280;20501;45.956;13.632;2022-10-31T08:58:52;101267.47;;;17.44;61.75
34237;BME280;20501;45.956;13.632;2022-10-31T09:01:18;101271.03;;;17.61;62.45
34237;BME280;20501;45.956;13.632;2022-10-31T09:03:43;101270.03;;;17.78;61.53
34237;BME280;20501;45.956;13.632;2022-10-31T09:06:09;101262.50;;;17.89;61.55
34237;BME280;20501;45.956;13.632;2022-10-31T09:08:35;101272.06;;;17.93;60.87
34237;BME280;20501;45.956;13.632;2022-10-31T09:11:01;101271.91;;;18.03;60.24
34237;BME280;20501;45.956;13.632;2022-10-31T09:13:27;101268.69;;;17.99;60.64
34237;BME280;20501;45.956;13.632;2022-10-31T09:15:52;101268.16;;;18.04;61.30
34237;BME280;20501;45.956;13.632;2022-10-31T09:18:21;101270.72;;;18.05;60.93
34237;BME280;20501;45.956;13.632;2022-10-31T09:20:48;101265.56;;;18.19;60.25
34237;BME280;20501;45.956;13.632;2022-10-31T09:25:41;101270.69;;;18.22;60.33
34237;BME280;20501;45.956;13.632;2022-10-31T09:28:10;101269.00;;;18.21;60.66
34237;BME280;20501;45.956;13.632;2022-10-31T09:30:36;101272.22;;;18.41;59.55
34237;BME280;20501;45.956;13.632;2022-10-31T09:33:03;101275.44;;;18.36;60.58
34237;BME280;20501;45.956;13.632;2022-10-31T09:35:29;101271.34;;;18.40;60.80
34237;BME280;20501;45.956;13.632;2022-10-31T09:38:03;101268.94;;;18.46;61.13
34237;BME280;20501;45.956;13.632;2022-10-31T09:40:35;101269.28;;;18.43;61.19
34237;BME280;20501;45.956;13.632;2022-10-31T09:48:21;101269.22;;;18.59;59.88
34237;BME280;20501;45.956;13.632;2022-10-31T09:50:52;101270.63;;;18.55;59.81
34237;BME280;20501;45.956;13.632;2022-10-31T09:53:23;101263.44;;;18.54;59.43
34237;BME280;20501;45.956;13.632;2022-10-31T09:55:51;101266.78;;;18.72;58.69
34237;BME280;20501;45.956;13.632;2022-10-31T09:58:23;101263.34;;;18.70;59.06
34237;BME280;20501;45.956;13.632;2022-10-31T10:00:50;101265.56;;;18.75;58.88
34237;BME280;20501;45.956;13.632;2022-10-31T10:06:04;101268.00;;;18.70;60.10
34237;BME280;20501;45.956;13.632;2022-10-31T10:08:32;101271.94;;;18.67;60.02
34237;BME280;20501;45.956;13.632;2022-10-31T10:14:36;101273.13;;;18.73;60.16
34237;BME280;20501;45.956;13.632;2022-10-31T10:17:09;101261.69;;;18.61;60.70
34237;BME280;20501;45.956;13.632;2022-10-31T10:27:49;101258.19;;;18.84;60.41
34237;BME280;20501;45.956;13.632;2022-10-31T10:30:40;101249.66;;;18.79;59.60
34237;BME280;20501;45.956;13.632;2022-10-31T10:33:13;101261.91;;;18.91;59.78
34237;BME280;20501;45.956;13.632;2022-10-31T10:35:45;101257.63;;;19.28;58.33
34237;BME280;20501;45.956;13.632;2022-10-31T10:38:27;101258.53;;;19.21;58.54
34237;BME280;20501;45.956;13.632;2022-10-31T10:40:55;101261.19;;;19.29;57.92
34237;BME280;20501;45.956;13.632;2022-10-31T10:43:29;101258.53;;;19.44;56.96
34237;BME280;20501;45.956;13.632;2022-10-31T10:54:53;101251.66;;;19.48;58.66
34237;BME280;20501;45.956;13.632;2022-10-31T10:57:02;101252.63;;;19.55;57.64
34237;BME280;20501;45.956;13.632;2022-10-31T10:59:30;101252.16;;;19.28;58.26
34237;BME280;20501;45.956;13.632;2022-10-31T11:01:56;101252.53;;;19.48;57.81
34237;BME280;20501;45.956;13.632;2022-10-31T11:04:35;101250.66;;;19.17;58.62
34237;BME280;20501;45.956;13.632;2022-10-31T11:07:07;101245.16;;;19.49;58.47
34237;BME280;20501;45.956;13.632;2022-10-31T11:09:33;101250.38;;;19.59;59.01
34237;BME280;20501;45.956;13.632;2022-10-31T11:12:05;101244.94;;;19.51;58.43
34237;BME280;20501;45.956;13.632;2022-10-31T11:14:57;101239.84;;;19.71;56.41
34237;BME280;20501;45.956;13.632;2022-10-31T11:22:36;101236.41;;;19.69;57.67
34237;BME280;20501;45.956;13.632;2022-10-31T11:28:05;101233.88;;;19.44;58.63
34237;BME280;20501;45.956;13.632;2022-10-31T11:30:42;101234.75;;;20.06;56.09
34237;BME280;20501;45.956;13.632;2022-10-31T11:33:36;101233.22;;;19.80;57.22
34237;BME280;20501;45.956;13.632;2022-10-31T11:36:21;101225.47;;;20.07;54.85
34237;BME280;20501;45.956;13.632;2022-10-31T11:38:48;101238.44;;;20.58;55.54
34237;BME280;20501;45.956;13.632;2022-10-31T11:41:23;101238.28;;;20.30;54.87
34237;BME280;20501;45.956;13.632;2022-10-31T11:43:56;101226.78;;;20.41;55.08
34237;BME280;20501;45.956;13.632;2022-10-31T11:46:32;101224.34;;;20.31;55.68
34237;BME280;20501;45.956;13.632;2022-10-31T11:48:58;101228.97;;;20.31;57.78
34237;BME280;20501;45.956;13.632;2022-10-31T11:51:26;101221.41;;;20.33;56.79
34237;BME280;20501;45.956;13.632;2022-10-31T11:53:55;101227.41;;;21.03;54.72
34237;BME280;20501;45.956;13.632;2022-10-31T11:56:24;101221.69;;;20.53;56.52
34237;BME280;20501;45.956;13.632;2022-10-31T11:58:56;101218.19;;;20.44;57.61
34237;BME280;20501;45.956;13.632;2022-10-31T12:01:29;101212.59;;;20.37;57.38
34237;BME280;20501;45.956;13.632;2022-10-31T12:04:06;101207.59;;;19.96;59.56
34237;BME280;20501;45.956;13.632;2022-10-31T12:06:35;101207.44;;;20.28;58.24
34237;BME280;20501;45.956;13.632;2022-10-31T12:09:01;101213.66;;;20.36;56.41
34237;BME280;20501;45.956;13.632;2022-10-31T12:19:09;101196.94;;;20.16;56.80
34237;BME280;20501;45.956;13.632;2022-10-31T12:25:03;101195.72;;;20.70;55.88
34237;BME280;20501;45.956;13.632;2022-10-31T12:31:17;101181.09;;;20.48;57.02
34237;BME280;20501;45.956;13.632;2022-10-31T12:41:57;101176.03;;;20.15;58.25
34237;BME280;20501;45.956;13.632;2022-10-31T12:50:22;101185.38;;;20.36;56.32
34237;BME280;20501;45.956;13.632;2022-10-31T12:53:12;101173.38;;;20.22;58.08
34237;BME280;20501;45.956;13.632;2022-10-31T12:58:35;101176.69;;;20.17;57.65
34237;BME280;20501;45.956;13.632;2022-10-31T13:01:12;101168.25;;;19.65;59.42
34237;BME280;20501;45.956;13.632;2022-10-31T13:04:01;101177.03;;;19.61;61.99
34237;BME280;20501;45.956;13.632;2022-10-31T13:06:35;101167.97;;;19.99;59.42
34237;BME280;20501;45.956;13.632;2022-10-31T13:09:06;101171.28;;;20.24;58.90
34237;BME280;20501;45.956;13.632;2022-10-31T13:11:42;101173.53;;;20.20;58.68
34237;BME280;20501;45.956;13.632;2022-10-31T13:14:25;101167.59;;;20.32;59.10
34237;BME280;20501;45.956;13.632;2022-10-31T13:16:54;101172.53;;;19.68;61.13
34237;BME280;20501;45.956;13.632;2022-10-31T13:19:27;101163.34;;;20.29;58.42
34237;BME280;20501;45.956;13.632;2022-10-31T13:22:08;101161.94;;;20.33;59.30
34237;BME280;20501;45.956;13.632;2022-10-31T13:24:46;101158.41;;;20.39;59.53
34237;BME280;20501;45.956;13.632;2022-10-31T13:27:41;101158.78;;;19.91;60.04
34237;BME280;20501;45.956;13.632;2022-10-31T13:30:19;101151.66;;;20.42;57.64
34237;BME280;20501;45.956;13.632;2022-10-31T13:38:09;101156.34;;;20.12;58.69
34237;BME280;20501;45.956;13.632;2022-10-31T13:43:30;101153.53;;;19.82;59.82
34237;BME280;20501;45.956;13.632;2022-10-31T13:45:57;101156.59;;;20.32;59.26
34237;BME280;20501;45.956;13.632;2022-10-31T13:51:03;101146.75;;;20.37;59.01
34237;BME280;20501;45.956;13.632;2022-10-31T13:53:44;101143.16;;;20.52;58.50
34237;BME280;20501;45.956;13.632;2022-10-31T13:58:38;101151.50;;;19.99;62.78
34237;BME280;20501;45.956;13.632;2022-10-31T14:01:18;101149.03;;;20.34;59.19
34237;BME280;20501;45.956;13.632;2022-10-31T14:03:46;101157.97;;;20.06;60.86
34237;BME280;20501;45.956;13.632;2022-10-31T14:06:12;101144.00;;;19.77;61.39
34237;BME280;20501;45.956;13.632;2022-10-31T14:08:50;101150.41;;;20.08;60.06
34237;BME280;20501;45.956;13.632;2022-10-31T14:11:26;101144.94;;;19.85;61.63
34237;BME280;20501;45.956;13.632;2022-10-31T14:13:54;101148.94;;;19.44;62.23
34237;BME280;20501;45.956;13.632;2022-10-31T14:16:27;101135.97;;;19.76;61.48
34237;BME280;20501;45.956;13.632;2022-10-31T14:19:17;101144.47;;;19.81;60.84
34237;BME280;20501;45.956;13.632;2022-10-31T14:21:45;101136.84;;;19.91;62.08
34237;BME280;20501;45.956;13.632;2022-10-31T14:32:06;101134.19;;;19.68;61.77
34237;BME280;20501;45.956;13.632;2022-10-31T14:34:42;101135.09;;;19.60;64.12
34237;BME280;20501;45.956;13.632;2022-10-31T14:51:02;101143.69;;;19.19;68.20
34237;BME280;20501;45.956;13.632;2022-10-31T14:53:40;101135.34;;;19.12;68.48
34237;BME280;20501;45.956;13.632;2022-10-31T14:56:10;101133.84;;;19.10;69.45
34237;BME280;20501;45.956;13.632;2022-10-31T14:58:42;101139.59;;;18.92;69.78
34237;BME280;20501;45.956;13.632;2022-10-31T15:01:22;101142.47;;;18.90;71.07
34237;BME280;20501;45.956;13.632;2022-10-31T15:03:49;101141.84;;;18.88;71.35
34237;BME280;20501;45.956;13.632;2022-10-31T15:06:17;101141.69;;;18.81;70.49
34237;BME280;20501;45.956;13.632;2022-10-31T15:08:49;101142.28;;;18.68;72.25
34237;BME280;20501;45.956;13.632;2022-10-31T15:11:17;101143.69;;;18.64;72.56